Time;durP1;ratioP1;P1;durP2;ratioP2;P2;SDS_P1;SDS_P2;PMS_P1;PMS_P2;Temp;Humidity;BMP_temperature;BMP_pressure;BME280_temperature;BME280_humidity;BME280_pressure;Samples;Min_cycle;Max_cycle;Signal;HPM_P1;HPM_P2
2022/12/09 00:01:17;;;;;;;2.72;2.53;;;19.00;50.90;;;;;;5042596;28;44939;-62
2022/12/09 00:03:45;;;;;;;2.92;2.72;;;19.00;50.90;;;;;;5026760;28;43978;-61
2022/12/09 00:06:18;;;;;;;3.30;2.60;;;19.00;50.90;;;;;;5038145;28;43434;-61
2022/12/09 00:08:47;;;;;;;2.70;2.50;;;19.00;50.90;;;;;;5031976;28;43432;-61
2022/12/09 00:11:15;;;;;;;3.03;2.65;;;19.00;51.00;;;;;;5041454;28;44269;-61
2022/12/09 00:13:43;;;;;;;2.60;2.40;;;18.90;50.90;;;;;;5040923;28;43980;-61
2022/12/09 00:16:12;;;;;;;2.60;2.40;;;18.90;50.90;;;;;;5028121;28;43383;-61
2022/12/09 00:18:41;;;;;;;2.38;2.17;;;18.90;50.90;;;;;;5042166;28;43617;-61
2022/12/09 00:21:19;;;;;;;2.78;2.55;;;18.90;50.90;;;;;;5042757;28;43992;-61
2022/12/09 00:23:47;;;;;;;2.70;2.50;;;18.90;50.90;;;;;;5042409;28;43401;-61
2022/12/09 00:26:17;;;;;;;2.50;2.30;;;18.90;51.00;;;;;;5042444;28;43779;-61
2022/12/09 00:28:45;;;;;;;2.75;2.55;;;18.90;50.90;;;;;;5041636;28;43470;-61
2022/12/09 00:31:15;;;;;;;2.55;2.38;;;18.90;50.90;;;;;;5041111;28;43880;-61
2022/12/09 00:33:45;;;;;;;2.33;2.17;;;18.80;50.80;;;;;;5031215;28;43754;-61
2022/12/09 00:36:16;;;;;;;2.47;2.28;;;18.80;50.90;;;;;;5032762;28;43423;-61
2022/12/09 00:38:44;;;;;;;2.70;2.50;;;18.80;50.90;;;;;;5034727;28;43382;-62
2022/12/09 00:41:12;;;;;;;2.50;2.30;;;18.80;50.90;;;;;;5038231;28;44671;-62
2022/12/09 00:43:41;;;;;;;2.25;2.13;;;18.80;50.90;;;;;;5026837;28;43357;-61
2022/12/09 00:46:10;;;;;;;2.33;2.20;;;18.80;51.00;;;;;;5033393;28;43451;-61
2022/12/09 00:48:38;;;;;;;2.47;2.28;;;18.80;50.90;;;;;;5022440;28;43618;-62
2022/12/09 00:51:08;;;;;;;2.22;2.13;;;18.80;51.00;;;;;;5040006;28;43900;-61
2022/12/09 00:53:35;;;;;;;2.53;2.33;;;18.70;51.00;;;;;;5042030;28;44023;-61
2022/12/09 00:56:03;;;;;;;2.22;2.10;;;18.70;51.70;;;;;;5041213;28;43430;-62
2022/12/09 00:58:30;;;;;;;2.10;2.00;;;18.70;51.10;;;;;;5041259;28;43725;-61
2022/12/09 01:00:58;;;;;;;2.40;2.20;;;18.60;51.00;;;;;;5026275;28;44007;-61
2022/12/09 01:03:26;;;;;;;2.15;2.05;;;18.70;50.90;;;;;;5036057;28;44016;-61
2022/12/09 01:05:54;;;;;;;1.90;1.80;;;18.70;51.00;;;;;;5032076;28;43482;-61
2022/12/09 01:08:22;;;;;;;2.60;2.25;;;18.60;50.90;;;;;;5041296;28;43637;-62
2022/12/09 01:10:50;;;;;;;2.35;2.22;;;18.60;51.00;;;;;;5031716;28;44810;-61
2022/12/09 01:13:17;;;;;;;1.98;1.88;;;18.60;51.00;;;;;;5042035;28;43472;-61
2022/12/09 01:15:46;;;;;;;2.10;2.00;;;18.60;51.00;;;;;;5037485;28;43444;-61
2022/12/09 01:18:15;;;;;;;1.90;1.80;;;18.60;51.00;;;;;;5021318;28;43634;-61
2022/12/09 01:20:43;;;;;;;1.75;1.65;;;18.60;51.00;;;;;;5039353;28;44034;-62
2022/12/09 01:23:10;;;;;;;2.10;2.00;;;18.60;51.00;;;;;;5040414;28;43416;-61
2022/12/09 01:25:38;;;;;;;2.20;2.10;;;18.50;50.90;;;;;;5041374;28;43441;-62
2022/12/09 01:28:05;;;;;;;2.00;1.90;;;18.50;50.90;;;;;;5036812;28;43575;-61
2022/12/09 01:30:33;;;;;;;2.00;1.90;;;18.50;50.90;;;;;;5024534;28;43776;-61
2022/12/09 01:33:01;;;;;;;2.05;1.95;;;18.50;51.00;;;;;;5036621;28;43487;-62
2022/12/09 01:35:28;;;;;;;1.90;1.80;;;18.50;51.00;;;;;;5034046;28;43513;-62
2022/12/09 01:37:56;;;;;;;2.00;1.90;;;18.50;51.00;;;;;;5041379;28;43463;-62
2022/12/09 01:40:24;;;;;;;2.10;2.00;;;18.50;51.00;;;;;;5036789;28;44985;-62
2022/12/09 01:42:52;;;;;;;1.80;1.70;;;18.50;51.00;;;;;;5020828;28;43481;-62
2022/12/09 01:45:29;;;;;;;1.83;1.73;;;18.50;51.00;;;;;;5021154;28;43404;-61
2022/12/09 01:48:10;;;;;;;2.00;1.90;;;18.40;51.00;;;;;;5036206;28;43415;-61
2022/12/09 01:50:54;;;;;;;2.05;1.95;;;18.40;51.00;;;;;;5023219;28;45035;-62
2022/12/09 01:53:28;;;;;;;1.45;1.45;;;18.40;50.90;;;;;;5021400;28;43910;-62
2022/12/09 01:55:58;;;;;;;1.63;1.52;;;18.40;50.90;;;;;;5022588;28;43539;-61
2022/12/09 01:58:27;;;;;;;1.95;1.85;;;18.40;51.00;;;;;;5041381;28;43392;-62
2022/12/09 02:00:56;;;;;;;1.92;1.83;;;18.40;51.00;;;;;;5036435;28;43817;-62
2022/12/09 02:03:24;;;;;;;1.67;1.60;;;18.30;51.00;;;;;;5036163;28;43559;-62
2022/12/09 02:05:52;;;;;;;1.75;1.65;;;18.30;51.00;;;;;;5034350;28;43479;-62
2022/12/09 02:08:19;;;;;;;1.80;1.70;;;18.30;51.00;;;;;;5026820;28;43539;-62
2022/12/09 02:11:30;;;;;;;1.95;1.85;;;18.30;51.00;;;;;;5038821;28;43888;-62
2022/12/09 02:14:02;;;;;;;2.20;2.10;;;18.30;51.00;;;;;;5037457;28;43388;-62
2022/12/09 02:16:39;;;;;;;2.20;2.10;;;18.30;51.00;;;;;;5031614;28;43480;-62
2022/12/09 02:19:16;;;;;;;1.88;1.77;;;18.30;51.00;;;;;;5026500;28;43505;-62
2022/12/09 02:21:53;;;;;;;1.80;1.70;;;18.30;51.00;;;;;;5041955;28;44032;-62
2022/12/09 02:24:27;;;;;;;1.75;1.60;;;18.30;51.10;;;;;;5034943;28;43487;-62
2022/12/09 02:27:17;;;;;;;2.00;1.90;;;18.20;51.00;;;;;;5023735;28;43405;-61
2022/12/09 02:30:16;;;;;;;2.10;2.00;;;18.20;51.10;;;;;;5023630;28;43482;-62
2022/12/09 02:33:04;;;;;;;2.00;1.90;;;18.20;51.00;;;;;;5023467;28;44755;-62
2022/12/09 02:35:47;;;;;;;2.40;2.20;;;18.20;51.00;;;;;;5043038;28;43957;-62
2022/12/09 02:38:30;;;;;;;2.30;2.20;;;18.20;51.10;;;;;;5033693;28;43419;-62
2022/12/09 02:41:07;;;;;;;2.00;1.90;;;18.20;51.10;;;;;;5035652;28;43405;-62
2022/12/09 02:43:41;;;;;;;2.47;2.30;;;18.10;51.10;;;;;;5022122;28;46026;-62
2022/12/09 02:46:20;;;;;;;2.30;2.15;;;18.10;51.00;;;;;;5023292;28;43412;-62
2022/12/09 02:48:53;;;;;;;2.08;1.98;;;18.10;51.10;;;;;;5022394;28;43424;-62
2022/12/09 02:51:22;;;;;;;2.00;1.90;;;18.10;51.10;;;;;;5044190;28;43514;-62
2022/12/09 02:53:57;;;;;;;2.00;1.90;;;18.10;51.00;;;;;;5034015;28;44937;-62
2022/12/09 02:56:26;;;;;;;2.00;1.90;;;18.10;51.10;;;;;;5023034;28;44389;-62
2022/12/09 02:58:54;;;;;;;1.80;1.70;;;18.00;51.00;;;;;;5036782;28;43551;-61
2022/12/09 03:02:04;;;;;;;2.65;2.25;;;18.00;51.10;;;;;;5025888;28;43595;-61
2022/12/09 03:04:32;;;;;;;2.17;2.08;;;18.00;51.10;;;;;;5013142;28;45075;-61
2022/12/09 03:07:24;;;;;;;2.08;1.98;;;18.00;51.10;;;;;;5043300;28;43326;-62
2022/12/09 03:10:14;;;;;;;1.80;1.70;;;18.00;51.10;;;;;;5042921;28;43482;-61
2022/12/09 03:12:51;;;;;;;2.15;2.03;;;18.00;51.10;;;;;;5043597;28;43969;-62
2022/12/09 03:15:25;;;;;;;2.00;1.90;;;18.00;51.20;;;;;;5043516;28;44039;-61
2022/12/09 03:17:55;;;;;;;2.03;1.92;;;17.90;51.20;;;;;;5043050;28;43427;-61
2022/12/09 03:20:27;;;;;;;2.13;2.03;;;17.90;51.20;;;;;;5043291;28;43455;-61
2022/12/09 03:22:59;;;;;;;1.98;1.88;;;17.90;51.20;;;;;;5032517;28;43502;-61
2022/12/09 03:25:32;;;;;;;1.90;1.80;;;17.90;51.20;;;;;;5043160;28;44800;-61
2022/12/09 03:28:06;;;;;;;1.75;1.65;;;17.90;51.20;;;;;;5029985;28;44028;-61
2022/12/09 03:30:38;;;;;;;1.70;1.60;;;17.90;51.30;;;;;;5026737;28;43984;-61
2022/12/09 03:33:06;;;;;;;1.73;1.63;;;17.80;51.30;;;;;;5042761;28;43980;-61
2022/12/09 03:35:41;;;;;;;1.80;1.70;;;17.80;51.30;;;;;;5035277;28;44294;-61
2022/12/09 03:38:14;;;;;;;1.98;1.88;;;17.80;51.30;;;;;;5042212;28;43973;-61
2022/12/09 03:40:42;;;;;;;1.90;1.80;;;17.80;51.40;;;;;;5043221;28;43361;-61
2022/12/09 03:43:40;;;;;;;1.92;1.83;;;17.70;51.30;;;;;;5043138;28;43565;-61
2022/12/09 03:46:08;;;;;;;1.90;1.80;;;17.70;51.30;;;;;;5041879;28;45245;-61
2022/12/09 03:48:35;;;;;;;1.75;1.65;;;17.70;51.40;;;;;;5041480;28;43433;-61
2022/12/09 03:51:13;;;;;;;2.00;1.90;;;17.70;51.40;;;;;;5043021;28;43493;-61
2022/12/09 03:53:58;;;;;;;1.90;1.80;;;17.70;51.30;;;;;;5042654;28;43434;-61
2022/12/09 03:56:31;;;;;;;1.63;1.50;;;17.70;51.40;;;;;;5042974;28;44203;-61
2022/12/09 03:59:02;;;;;;;1.67;1.58;;;17.60;51.40;;;;;;5042489;28;43421;-61
2022/12/09 04:01:31;;;;;;;1.80;1.70;;;17.70;51.40;;;;;;5042540;28;43573;-61
2022/12/09 04:03:59;;;;;;;1.65;1.63;;;17.70;51.40;;;;;;5040739;28;43600;-61
2022/12/09 04:06:27;;;;;;;1.80;1.70;;;17.60;51.40;;;;;;5029261;28;44063;-61
2022/12/09 04:08:54;;;;;;;1.80;1.70;;;17.60;51.40;;;;;;5041779;28;43720;-61
2022/12/09 04:11:30;;;;;;;1.75;1.65;;;17.60;51.40;;;;;;5039802;28;43476;-61
2022/12/09 04:13:57;;;;;;;1.70;1.60;;;17.60;51.40;;;;;;5026977;28;43506;-61
2022/12/09 04:16:25;;;;;;;1.70;1.60;;;17.60;51.40;;;;;;5034735;28;44819;-61
2022/12/09 04:18:54;;;;;;;1.80;1.70;;;17.60;51.40;;;;;;5033779;28;43388;-61
2022/12/09 04:21:21;;;;;;;1.60;1.50;;;17.60;51.40;;;;;;5026549;28;43526;-61
2022/12/09 04:23:49;;;;;;;1.42;1.35;;;17.60;51.40;;;;;;5027020;28;43598;-61
2022/12/09 04:26:20;;;;;;;1.67;1.58;;;17.60;51.50;;;;;;5034394;28;44743;-61
2022/12/09 04:28:49;;;;;;;1.30;1.30;;;17.60;51.50;;;;;;5034717;28;43784;-61
2022/12/09 04:31:18;;;;;;;1.70;1.60;;;17.50;51.40;;;;;;5025065;28;43420;-61
2022/12/09 04:33:46;;;;;;;1.60;1.50;;;17.50;51.50;;;;;;5022595;28;43575;-61
2022/12/09 04:36:16;;;;;;;1.50;1.40;;;17.50;51.50;;;;;;5022309;28;43879;-61
2022/12/09 04:38:44;;;;;;;1.90;1.48;;;17.50;51.50;;;;;;5034845;28;43433;-61
2022/12/09 04:41:13;;;;;;;1.50;1.50;;;17.50;51.50;;;;;;5041511;28;43404;-61
2022/12/09 04:43:41;;;;;;;1.80;1.70;;;17.40;51.50;;;;;;5035960;28;43408;-61
2022/12/09 04:46:12;;;;;;;1.23;1.20;;;17.40;51.50;;;;;;5032548;28;44113;-61
2022/12/09 04:48:40;;;;;;;1.50;1.45;;;17.40;52.20;;;;;;5041123;28;43984;-61
2022/12/09 04:51:09;;;;;;;1.55;1.48;;;17.40;51.50;;;;;;5026556;28;43496;-61
2022/12/09 04:53:38;;;;;;;1.25;1.25;;;17.40;51.50;;;;;;5037581;28;43437;-61
2022/12/09 04:56:07;;;;;;;1.58;1.48;;;17.40;51.50;;;;;;5032082;28;44135;-61
2022/12/09 04:58:35;;;;;;;1.80;1.70;;;17.40;51.50;;;;;;5041229;28;43606;-61
2022/12/09 05:01:15;;;;;;;1.50;1.40;;;17.40;51.50;;;;;;5041861;28;43381;-61
2022/12/09 05:03:49;;;;;;;1.50;1.40;;;17.40;51.50;;;;;;5042022;28;43445;-61
2022/12/09 05:06:19;;;;;;;1.52;1.45;;;17.40;51.50;;;;;;5041393;28;43794;-61
2022/12/09 05:08:47;;;;;;;1.45;1.45;;;17.40;51.50;;;;;;5039460;28;43528;-61
2022/12/09 05:11:16;;;;;;;1.42;1.33;;;17.40;51.50;;;;;;5030940;28;43573;-61
2022/12/09 05:13:44;;;;;;;1.20;1.20;;;17.30;51.50;;;;;;5042227;28;43502;-61
2022/12/09 05:16:14;;;;;;;1.42;1.33;;;17.30;51.50;;;;;;5041345;28;44052;-61
2022/12/09 05:18:45;;;;;;;1.40;1.40;;;17.40;51.50;;;;;;5040801;28;43439;-61
2022/12/09 05:21:15;;;;;;;1.67;1.58;;;17.30;51.50;;;;;;5042119;28;43415;-61
2022/12/09 05:23:43;;;;;;;1.60;1.50;;;17.30;51.50;;;;;;5041531;28;43491;-61
2022/12/09 05:26:14;;;;;;;1.58;1.48;;;17.30;51.50;;;;;;5041190;28;44684;-61
2022/12/09 05:28:42;;;;;;;1.65;1.52;;;17.20;51.50;;;;;;5037432;28;43521;-61
2022/12/09 05:31:16;;;;;;;1.38;1.38;;;17.30;51.60;;;;;;5029542;28;43472;-61
2022/12/09 05:33:45;;;;;;;1.60;1.50;;;17.30;51.60;;;;;;5033230;28;43487;-61
2022/12/09 05:36:18;;;;;;;1.75;1.65;;;17.30;51.60;;;;;;5039560;28;44103;-61
2022/12/09 05:38:47;;;;;;;1.50;1.40;;;17.20;51.60;;;;;;5040728;28;43454;-61
2022/12/09 05:41:16;;;;;;;1.35;1.30;;;17.20;51.60;;;;;;5041521;28;43440;-61
2022/12/09 05:43:44;;;;;;;1.60;1.50;;;17.20;51.60;;;;;;5041410;28;43581;-61
2022/12/09 05:46:13;;;;;;;1.10;1.10;;;17.20;51.60;;;;;;5040705;28;44170;-61
2022/12/09 05:48:41;;;;;;;1.58;1.48;;;17.20;51.60;;;;;;5040829;28;43464;-61
2022/12/09 05:51:14;;;;;;;1.90;1.70;;;17.20;51.60;;;;;;5041292;28;43831;-61
2022/12/09 05:53:42;;;;;;;1.30;1.30;;;17.20;51.60;;;;;;5041250;28;43472;-61
2022/12/09 05:56:13;;;;;;;1.55;1.45;;;17.20;51.60;;;;;;5039243;28;44689;-61
2022/12/09 05:58:42;;;;;;;1.80;1.70;;;17.10;51.50;;;;;;5032800;28;44030;-61
2022/12/09 06:01:10;;;;;;;1.77;1.67;;;17.10;51.60;;;;;;5044489;28;43434;-61
2022/12/09 06:03:38;;;;;;;1.50;1.40;;;17.10;51.50;;;;;;5042056;28;43557;-61
2022/12/09 06:06:11;;;;;;;1.55;1.45;;;17.10;51.50;;;;;;5041106;28;45016;-61
2022/12/09 06:08:42;;;;;;;1.55;1.45;;;17.10;51.60;;;;;;5039645;28;43903;-61
2022/12/09 06:11:19;;;;;;;1.50;1.40;;;17.10;51.60;;;;;;5036242;28;43432;-61
2022/12/09 06:13:49;;;;;;;1.70;1.60;;;17.10;51.60;;;;;;5043354;28;43899;-61
2022/12/09 06:16:19;;;;;;;1.65;1.55;;;17.10;51.60;;;;;;5044373;28;44315;-61
2022/12/09 06:18:48;;;;;;;1.70;1.60;;;17.10;51.70;;;;;;5032514;28;43503;-60
2022/12/09 06:21:18;;;;;;;1.80;1.70;;;17.10;51.60;;;;;;5030130;28;44062;-61
2022/12/09 06:23:46;;;;;;;1.60;1.50;;;17.10;51.60;;;;;;5043649;28;43642;-61
2022/12/09 06:26:27;;;;;;;1.90;1.80;;;17.10;51.60;;;;;;5044139;28;43908;-61
2022/12/09 06:28:56;;;;;;;1.73;1.63;;;17.10;51.60;;;;;;5030170;28;43403;-61
2022/12/09 06:31:26;;;;;;;1.70;1.60;;;17.00;51.70;;;;;;5040825;28;43416;-60
2022/12/09 06:33:54;;;;;;;1.95;1.85;;;17.00;51.50;;;;;;5030767;28;43513;-61
2022/12/09 06:36:27;;;;;;;1.80;1.70;;;17.00;51.60;;;;;;5038614;28;43679;-61
2022/12/09 06:38:56;;;;;;;1.88;1.75;;;17.00;51.60;;;;;;5026531;28;45492;-61
2022/12/09 06:41:29;;;;;;;1.60;1.50;;;17.00;51.60;;;;;;5040582;28;44427;-61
2022/12/09 06:43:58;;;;;;;1.67;1.58;;;17.00;51.60;;;;;;5042649;28;43538;-61
2022/12/09 06:46:27;;;;;;;2.00;1.90;;;17.00;51.60;;;;;;5033118;28;44127;-61
2022/12/09 06:48:56;;;;;;;1.83;1.73;;;17.00;51.70;;;;;;5042352;28;43708;-61
2022/12/09 06:51:25;;;;;;;2.00;1.90;;;17.00;51.70;;;;;;5022847;28;43507;-61
2022/12/09 06:53:53;;;;;;;1.90;1.70;;;17.00;51.70;;;;;;5032852;28;43555;-61
2022/12/09 06:56:21;;;;;;;2.45;1.95;;;17.00;51.80;;;;;;5034760;28;44969;-61
2022/12/09 06:58:49;;;;;;;2.00;1.90;;;17.00;51.80;;;;;;5041090;28;43480;-61
2022/12/09 07:01:22;;;;;;;1.75;1.60;;;17.00;51.80;;;;;;5024547;28;43543;-61
2022/12/09 07:03:54;;;;;;;1.60;1.50;;;17.00;51.80;;;;;;5040215;28;43589;-61
2022/12/09 07:06:28;;;;;;;2.05;1.80;;;16.90;51.80;;;;;;5039615;28;44980;-60
2022/12/09 07:09:00;;;;;;;1.90;1.80;;;16.90;51.80;;;;;;5038901;28;44138;-60
2022/12/09 07:11:29;;;;;;;1.92;1.77;;;16.90;51.80;;;;;;5033005;28;45407;-61
2022/12/09 07:13:57;;;;;;;1.95;1.85;;;16.90;51.80;;;;;;5028836;28;43623;-61
2022/12/09 07:16:25;;;;;;;1.90;1.80;;;16.90;51.80;;;;;;5039039;28;44008;-61
2022/12/09 07:18:54;;;;;;;1.83;1.73;;;16.90;51.80;;;;;;5042669;28;43443;-61
2022/12/09 07:21:23;;;;;;;1.73;1.63;;;16.90;51.80;;;;;;5033216;28;43435;-62
2022/12/09 07:23:51;;;;;;;2.00;1.90;;;16.90;51.80;;;;;;5035895;28;43977;-62
2022/12/09 07:26:19;;;;;;;1.80;1.70;;;16.90;51.80;;;;;;5032915;28;44712;-61
2022/12/09 07:28:49;;;;;;;2.00;1.90;;;16.90;51.80;;;;;;5032458;28;43578;-61
2022/12/09 07:31:18;;;;;;;1.58;1.45;;;16.90;51.80;;;;;;5023286;28;43749;-61
2022/12/09 07:33:47;;;;;;;1.83;1.73;;;16.90;51.80;;;;;;5035934;28;43566;-61
2022/12/09 07:36:15;;;;;;;1.77;1.67;;;16.90;51.90;;;;;;5034647;28;44006;-61
2022/12/09 07:38:58;;;;;;;1.75;1.65;;;16.90;51.80;;;;;;5033170;28;43655;-61
2022/12/09 07:41:27;;;;;;;2.15;2.05;;;16.90;51.90;;;;;;5035246;28;43400;-62
2022/12/09 07:43:55;;;;;;;2.00;1.90;;;16.90;51.90;;;;;;5043104;28;43835;-61
2022/12/09 07:46:26;;;;;;;2.10;2.00;;;16.80;51.90;;;;;;5035530;28;43805;-61
2022/12/09 07:48:54;;;;;;;;;;;16.80;51.80;;;;;;5023509;28;44327;-61
2022/12/09 07:51:23;;;;;;;2.38;2.15;;;16.80;51.80;;;;;;5023155;28;43490;-60
2022/12/09 07:53:51;;;;;;;2.13;1.95;;;16.80;51.90;;;;;;5039849;28;43432;-61
2022/12/09 07:56:21;;;;;;;2.28;1.90;;;16.80;51.80;;;;;;5027998;28;43885;-61
2022/12/09 07:58:52;;;;;;;2.20;2.00;;;16.80;51.80;;;;;;5032579;28;43899;-60
2022/12/09 08:01:26;;;;;;;3.40;2.17;;;16.80;51.80;;;;;;5033434;28;43468;-60
2022/12/09 08:03:55;;;;;;;3.22;2.50;;;16.80;51.90;;;;;;5039510;28;43344;-61
2022/12/09 08:06:26;;;;;;;2.67;2.20;;;16.80;51.90;;;;;;5028634;28;43993;-61
2022/12/09 08:09:03;;;;;;;;;;;16.80;51.80;;;;;;5031535;28;43824;-61
2022/12/09 08:11:32;;;;;;;2.42;2.20;;;16.80;51.80;;;;;;5041018;28;43494;-62
2022/12/09 08:14:04;;;;;;;4.05;2.33;;;16.80;51.80;;;;;;5027658;28;43495;-61
2022/12/09 08:16:40;;;;;;;2.40;2.28;;;16.80;51.70;;;;;;5042744;28;43899;-60
2022/12/09 08:19:10;;;;;;;;;;;16.80;51.60;;;;;;5027022;28;43490;-61
2022/12/09 08:21:38;;;;;;;3.45;2.80;;;16.80;51.70;;;;;;5041936;28;43509;-61
2022/12/09 08:24:07;;;;;;;4.60;2.75;;;16.80;51.80;;;;;;5035649;28;43550;-62
2022/12/09 08:26:37;;;;;;;5.80;2.70;;;16.80;51.70;;;;;;5025849;28;44949;-62
2022/12/09 08:29:09;;;;;;;5.50;2.85;;;16.90;51.80;;;;;;5036569;28;43459;-61
2022/12/09 08:31:38;;;;;;;3.20;2.72;;;16.90;51.60;;;;;;5027062;28;43372;-62
2022/12/09 08:34:08;;;;;;;5.65;2.75;;;16.90;51.70;;;;;;5039381;28;43432;-63
2022/12/09 08:36:37;;;;;;;3.92;2.80;;;17.00;51.70;;;;;;5029611;28;43971;-62
2022/12/09 08:39:05;;;;;;;3.70;2.63;;;17.10;51.70;;;;;;5038274;28;43462;-62
2022/12/09 08:41:35;;;;;;;5.72;3.20;;;17.10;51.60;;;;;;5027500;28;43424;-61
2022/12/09 08:44:11;;;;;;;6.75;3.10;;;17.20;51.70;;;;;;5042409;28;43499;-56
2022/12/09 08:46:42;;;;;;;4.75;2.80;;;17.30;51.40;;;;;;5041905;28;44222;-61
2022/12/09 08:49:10;;;;;;;3.25;2.92;;;17.50;51.30;;;;;;5025749;28;43684;-62
2022/12/09 08:51:38;;;;;;;4.20;3.15;;;17.60;51.30;;;;;;5035552;28;43455;-62
2022/12/09 08:54:06;;;;;;;5.65;2.72;;;17.60;51.60;;;;;;5041794;28;43699;-61
2022/12/09 08:56:35;;;;;;;3.35;2.88;;;17.80;51.20;;;;;;5026582;28;45003;-61
2022/12/09 08:59:03;;;;;;;6.43;2.97;;;17.90;51.10;;;;;;5041430;28;43578;-60
2022/12/09 09:01:33;;;;;;;5.95;3.00;;;18.10;51.60;;;;;;5033989;28;44096;-61
2022/12/09 09:04:11;;;;;;;4.47;2.92;;;18.30;51.20;;;;;;5034295;28;43417;-61
2022/12/09 09:06:41;;;;;;;5.57;2.80;;;18.40;50.90;;;;;;5040470;28;44777;-63
2022/12/09 09:09:11;;;;;;;4.07;3.03;;;18.60;50.70;;;;;;5027247;28;43457;-60
2022/12/09 09:11:40;;;;;;;3.78;2.47;;;18.70;50.60;;;;;;5037524;28;43455;-61
2022/12/09 09:14:10;;;;;;;4.75;2.95;;;18.80;50.50;;;;;;5027468;28;43460;-60
2022/12/09 09:16:41;;;;;;;3.13;2.90;;;18.90;50.20;;;;;;5022905;28;43812;-61
2022/12/09 09:19:16;;;;;;;6.53;2.67;;;19.00;50.10;;;;;;5042755;28;43947;-60
2022/12/09 09:21:44;;;;;;;4.55;3.03;;;19.10;50.10;;;;;;5034183;28;43421;-61
2022/12/09 09:24:16;;;;;;;4.43;2.72;;;19.10;49.80;;;;;;5024933;28;43483;-60
2022/12/09 09:26:45;;;;;;;5.43;2.92;;;19.20;49.50;;;;;;5038234;28;43786;-60
2022/12/09 09:29:15;;;;;;;4.10;2.90;;;19.20;49.40;;;;;;5031818;28;43753;-61
2022/12/09 09:31:47;;;;;;;4.15;2.97;;;19.30;49.50;;;;;;5030136;28;43401;-62
2022/12/09 09:34:16;;;;;;;3.80;2.63;;;19.30;49.30;;;;;;5036757;28;43436;-60
2022/12/09 09:36:44;;;;;;;4.43;2.83;;;19.30;49.30;;;;;;5044990;28;44774;-62
2022/12/09 09:39:12;;;;;;;6.28;3.00;;;19.30;49.30;;;;;;5034617;28;43353;-60
2022/12/09 09:41:57;;;;;;;3.80;3.10;;;19.30;49.20;;;;;;5039493;28;43458;-60
2022/12/09 09:44:37;;;;;;;5.47;3.00;;;19.50;49.10;;;;;;5032631;28;43547;-60
2022/12/09 09:47:27;;;;;;;3.17;2.88;;;19.50;49.00;;;;;;5040852;28;45144;-60
2022/12/09 09:50:28;;;;;;;3.30;3.00;;;19.50;48.90;;;;;;5041428;28;43384;-60
2022/12/09 09:52:56;;;;;;;3.38;2.83;;;19.60;48.90;;;;;;5034585;28;43537;-60
2022/12/09 09:55:34;;;;;;;3.17;2.92;;;19.60;48.80;;;;;;5031391;28;43517;-60
2022/12/09 09:58:22;;;;;;;3.58;3.05;;;19.60;48.80;;;;;;5040999;28;45006;-60
2022/12/09 10:01:17;;;;;;;3.38;3.08;;;19.60;48.70;;;;;;5035026;28;43399;-60
2022/12/09 10:03:59;;;;;;;3.30;3.00;;;19.60;48.70;;;;;;5043551;28;43439;-60
2022/12/09 10:06:55;;;;;;;3.38;3.10;;;19.60;48.80;;;;;;5044075;28;43489;-59
2022/12/09 10:09:51;;;;;;;3.85;3.40;;;19.60;49.00;;;;;;5029222;28;44072;-60
2022/12/09 10:12:53;;;;;;;3.90;3.47;;;19.60;48.80;;;;;;5034615;28;43471;-59
2022/12/09 10:15:33;;;;;;;6.55;3.40;;;19.50;48.80;;;;;;5041611;28;43418;-59
2022/12/09 10:18:17;;;;;;;4.88;3.50;;;19.60;49.00;;;;;;5028463;28;43599;-59
2022/12/09 10:20:46;;;;;;;4.47;3.28;;;19.60;49.00;;;;;;5043909;28;44078;-60
2022/12/09 10:23:15;;;;;;;4.13;3.72;;;19.50;49.00;;;;;;5044163;28;43696;-60
2022/12/09 10:26:00;;;;;;;4.40;3.45;;;19.50;49.00;;;;;;5029167;28;43407;-60
2022/12/09 10:28:37;;;;;;;5.55;3.50;;;19.50;49.10;;;;;;5034318;28;43594;-60
2022/12/09 10:31:05;;;;;;;3.50;3.20;;;19.50;49.10;;;;;;5036741;28;44055;-59
2022/12/09 10:33:35;;;;;;;3.47;3.17;;;19.50;49.10;;;;;;5027978;28;43406;-59
2022/12/09 10:36:06;;;;;;;4.00;3.60;;;19.50;49.80;;;;;;5036632;28;43378;-59
2022/12/09 10:38:38;;;;;;;3.67;3.40;;;19.50;49.10;;;;;;5036738;28;43710;-60
2022/12/09 10:43:33;;;;;;;4.35;3.20;;;19.50;49.20;;;;;;5027047;28;45042;-60
2022/12/09 10:44:24;;;;;;;4.05;3.60;;;19.50;49.20;;;;;;5043625;28;43529;-60
2022/12/09 10:47:19;;;;;;;4.03;2.88;;;19.50;49.30;;;;;;5027971;28;43443;-59
2022/12/09 10:49:50;;;;;;;4.22;2.95;;;19.50;49.40;;;;;;5033875;28;43515;-59
2022/12/09 10:52:24;;;;;;;4.00;2.90;;;19.60;49.50;;;;;;5031236;28;43923;-61
2022/12/09 10:54:52;;;;;;;2.80;2.60;;;19.60;49.30;;;;;;5024130;28;43916;-60
2022/12/09 10:57:26;;;;;;;3.00;2.80;;;19.60;49.30;;;;;;5029821;28;43530;-60
2022/12/09 11:00:22;;;;;;;3.72;3.38;;;19.70;49.40;;;;;;5032170;28;43582;-61
2022/12/09 11:02:55;;;;;;;5.03;3.05;;;19.70;49.20;;;;;;5033670;28;44040;-60
2022/12/09 11:05:26;;;;;;;4.10;3.50;;;19.80;49.30;;;;;;5036495;28;43964;-60
2022/12/09 11:07:57;;;;;;;3.55;3.25;;;19.80;49.10;;;;;;5035203;28;43391;-60
2022/12/09 11:10:27;;;;;;;3.65;3.35;;;19.80;49.10;;;;;;5038736;28;44426;-60
2022/12/09 11:12:59;;;;;;;;;;;19.80;49.10;;;;;;5039423;28;43914;-60
2022/12/09 11:15:31;;;;;;;4.03;3.63;;;19.80;49.00;;;;;;5034331;28;43556;-60
2022/12/09 11:18:06;;;;;;;4.05;3.40;;;19.80;49.00;;;;;;5033920;28;43438;-60
2022/12/09 11:20:35;;;;;;;4.07;3.38;;;19.90;49.00;;;;;;5031540;28;43460;-60
2022/12/09 11:23:15;;;;;;;5.63;3.30;;;19.90;49.00;;;;;;5034984;28;43796;-60
2022/12/09 11:25:56;;;;;;;4.18;2.75;;;20.00;49.00;;;;;;5032634;28;44218;-60
2022/12/09 11:28:28;;;;;;;3.45;3.13;;;20.00;49.00;;;;;;5039089;28;43413;-60
2022/12/09 11:31:16;;;;;;;2.95;2.75;;;20.10;49.00;;;;;;5028964;28;43568;-61
2022/12/09 11:34:00;;;;;;;3.03;2.72;;;20.10;49.00;;;;;;5037001;28;44302;-60
2022/12/09 11:36:36;;;;;;;2.67;2.47;;;20.10;48.90;;;;;;5034953;28;43699;-62
2022/12/09 11:39:31;;;;;;;2.92;2.67;;;20.20;49.00;;;;;;5032503;28;43467;-59
2022/12/09 11:42:17;;;;;;;3.20;2.60;;;20.20;48.90;;;;;;5038823;28;43444;-60
2022/12/09 11:44:56;;;;;;;3.03;2.53;;;20.20;48.80;;;;;;5031345;28;44072;-60
2022/12/09 11:47:41;;;;;;;2.72;2.53;;;20.20;48.90;;;;;;5040299;28;43471;-60
2022/12/09 11:50:31;;;;;;;2.55;2.35;;;20.10;49.00;;;;;;5027654;28;43428;-60
2022/12/09 11:53:11;;;;;;;3.00;2.70;;;20.10;49.00;;;;;;5031569;28;43549;-59
2022/12/09 11:56:09;;;;;;;3.10;2.53;;;20.10;49.20;;;;;;5023316;28;45296;-60
2022/12/09 11:58:58;;;;;;;2.75;2.55;;;20.10;49.20;;;;;;5013928;28;43468;-59
2022/12/09 12:01:41;;;;;;;2.50;2.30;;;20.00;49.20;;;;;;5027051;28;43381;-59
2022/12/09 12:04:11;;;;;;;2.70;2.50;;;20.00;49.30;;;;;;5036217;28;43694;-59
2022/12/09 12:06:47;;;;;;;2.60;2.23;;;20.10;49.40;;;;;;5021259;28;44640;-59
2022/12/09 12:09:31;;;;;;;2.10;2.00;;;20.00;49.30;;;;;;5029069;28;43515;-60
2022/12/09 12:12:07;;;;;;;2.30;2.10;;;20.10;49.40;;;;;;5032431;28;43476;-60
2022/12/09 12:14:40;;;;;;;2.08;1.88;;;20.10;49.40;;;;;;5030972;28;43427;-60
2022/12/09 12:17:31;;;;;;;2.25;2.15;;;20.10;49.50;;;;;;5022351;28;44688;-60
2022/12/09 12:19:58;;;;;;;2.00;1.90;;;20.10;49.40;;;;;;5022354;28;44007;-60
2022/12/09 12:22:47;;;;;;;1.92;1.83;;;20.10;49.40;;;;;;5027714;28;43475;-60
2022/12/09 12:25:43;;;;;;;1.98;1.85;;;20.10;49.40;;;;;;5038123;28;43408;-60
2022/12/09 12:28:13;;;;;;;1.88;1.77;;;20.10;49.40;;;;;;5030281;28;43796;-61
2022/12/09 12:30:55;;;;;;;1.90;1.80;;;20.10;49.40;;;;;;5037243;28;43763;-60
2022/12/09 12:33:31;;;;;;;2.22;1.90;;;20.10;49.40;;;;;;5022026;28;43482;-60
2022/12/09 12:36:28;;;;;;;1.90;1.80;;;20.10;49.50;;;;;;5021454;28;43547;-61
2022/12/09 12:39:04;;;;;;;2.10;2.00;;;20.10;49.60;;;;;;5034176;28;44980;-60
2022/12/09 12:41:53;;;;;;;1.92;1.77;;;20.10;49.60;;;;;;5026691;28;43706;-61
2022/12/09 12:47:53;;;;;;;2.00;1.90;;;20.10;49.70;;;;;;5021390;28;43444;-61
2022/12/09 12:50:56;;;;;;;2.00;1.90;;;20.10;49.70;;;;;;5022836;28;45048;-61
2022/12/09 12:53:38;;;;;;;2.10;1.92;;;20.00;49.70;;;;;;5035393;28;43685;-60
2022/12/09 12:56:36;;;;;;;2.38;1.77;;;20.00;49.70;;;;;;5033768;28;43402;-60
2022/12/09 12:59:10;;;;;;;1.80;1.70;;;20.00;49.70;;;;;;5037627;28;43482;-60
2022/12/09 13:01:45;;;;;;;1.88;1.77;;;20.00;49.80;;;;;;5022894;28;44696;-60
2022/12/09 13:04:55;;;;;;;1.60;1.50;;;20.00;49.70;;;;;;5035432;28;43714;-60
2022/12/09 13:07:37;;;;;;;2.20;2.00;;;20.10;49.80;;;;;;5000418;28;43473;-60
2022/12/09 13:10:27;;;;;;;5.75;2.10;;;20.10;49.80;;;;;;5032672;28;43474;-62
2022/12/09 13:12:57;;;;;;;4.00;1.98;;;20.10;49.90;;;;;;5026732;28;44847;-60
2022/12/09 13:15:45;;;;;;;2.55;1.75;;;20.00;49.80;;;;;;5032366;28;44012;-60
2022/12/09 13:18:34;;;;;;;2.28;1.90;;;20.10;49.90;;;;;;5037557;28;43475;-60
2022/12/09 13:21:04;;;;;;;2.03;1.92;;;20.10;49.70;;;;;;5028714;28;43543;-59
2022/12/09 13:23:53;;;;;;;1.98;1.80;;;20.10;49.80;;;;;;5030059;28;44800;-60
2022/12/09 13:26:42;;;;;;;4.40;2.40;;;20.10;49.90;;;;;;5037557;28;43633;-60